createdAt,value
2022-08-16T00:01:12.117Z,7.95
2022-08-16T00:03:39.114Z,7.05
2022-08-16T00:06:08.138Z,9.05
2022-08-16T00:08:37.746Z,5.30
2022-08-16T00:11:15.536Z,5.18
2022-08-16T00:13:53.687Z,5.93
2022-08-16T00:17:01.262Z,7.00
2022-08-16T00:19:13.657Z,6.50
2022-08-16T00:21:41.565Z,8.20
2022-08-16T00:24:11.570Z,5.78
2022-08-16T00:26:45.175Z,6.30
2022-08-16T00:29:15.441Z,6.88
2022-08-16T00:31:58.900Z,7.57
2022-08-16T00:34:44.220Z,5.57
2022-08-16T00:37:16.728Z,6.55
2022-08-16T00:39:44.849Z,5.43
2022-08-16T00:42:12.017Z,8.05
2022-08-16T00:44:40.037Z,8.30
2022-08-16T00:47:12.548Z,6.13
2022-08-16T00:49:44.845Z,6.65
2022-08-16T00:52:29.536Z,6.97
2022-08-16T00:54:58.879Z,5.20
2022-08-16T00:57:27.579Z,8.07
2022-08-16T01:00:19.989Z,6.13
2022-08-16T01:02:47.982Z,5.85
2022-08-16T01:05:16.141Z,6.25
2022-08-16T01:07:51.647Z,7.80
2022-08-16T01:10:31.831Z,9.10
2022-08-16T01:13:19.111Z,6.05
2022-08-16T01:15:55.397Z,6.17
2022-08-16T01:18:40.297Z,7.50
2022-08-16T01:21:22.486Z,6.37
2022-08-16T01:24:01.370Z,7.63
2022-08-16T01:26:35.002Z,6.07
2022-08-16T01:29:09.891Z,7.60
2022-08-16T01:31:42.650Z,6.68
2022-08-16T01:34:25.080Z,10.02
2022-08-16T01:37:07.263Z,7.80
2022-08-16T01:39:36.326Z,6.72
2022-08-16T01:42:07.435Z,8.13
2022-08-16T01:47:09.155Z,9.88
2022-08-16T01:49:45.560Z,8.23
2022-08-16T01:52:30.080Z,7.03
2022-08-16T01:55:11.164Z,6.65
2022-08-16T01:57:38.444Z,6.45
2022-08-16T02:00:18.918Z,7.93
2022-08-16T02:02:46.738Z,8.98
2022-08-16T02:05:19.751Z,6.50
2022-08-16T02:07:52.075Z,7.68
2022-08-16T02:10:20.791Z,12.25
2022-08-16T02:12:55.699Z,8.38
2022-08-16T02:15:27.090Z,8.23
2022-08-16T02:17:58.558Z,8.90
2022-08-16T02:20:31.015Z,9.07
2022-08-16T02:22:59.638Z,9.77
2022-08-16T02:25:52.154Z,7.47
2022-08-16T02:28:17.168Z,9.07
2022-08-16T02:30:50.582Z,9.95
2022-08-16T02:33:18.615Z,11.68
2022-08-16T02:35:54.361Z,8.18
2022-08-16T02:38:28.412Z,10.18
2022-08-16T02:40:57.055Z,11.65
2022-08-16T02:43:27.811Z,11.02
2022-08-16T02:45:58.175Z,10.40
2022-08-16T02:48:28.594Z,9.70
2022-08-16T02:51:10.233Z,10.90
2022-08-16T02:53:41.556Z,11.55
2022-08-16T02:56:12.303Z,11.00
2022-08-16T02:58:44.147Z,9.90
2022-08-16T03:01:25.375Z,12.95
2022-08-16T03:04:41.394Z,11.25
2022-08-16T03:06:56.422Z,12.02
2022-08-16T03:09:36.889Z,12.63
2022-08-16T03:12:05.698Z,11.05
2022-08-16T03:14:34.455Z,11.63
2022-08-16T03:17:03.157Z,11.40
2022-08-16T03:19:48.715Z,13.30
2022-08-16T03:22:28.184Z,13.60
2022-08-16T03:25:02.945Z,12.10
2022-08-16T03:27:33.510Z,11.43
2022-08-16T03:30:16.309Z,12.48
2022-08-16T03:32:51.694Z,13.20
2022-08-16T03:35:23.735Z,12.77
2022-08-16T03:38:03.929Z,13.13
2022-08-16T03:40:42.464Z,13.27
2022-08-16T03:43:20.080Z,12.93
2022-08-16T03:45:53.824Z,14.52
2022-08-16T03:48:37.019Z,14.65
2022-08-16T03:51:13.469Z,10.93
2022-08-16T03:54:00.947Z,12.98
2022-08-16T03:56:30.463Z,13.93
2022-08-16T03:58:59.578Z,13.38
2022-08-16T04:01:31.294Z,19.33
2022-08-16T04:03:58.556Z,12.65
2022-08-16T04:06:26.864Z,14.05
2022-08-16T04:08:54.450Z,13.45
2022-08-16T04:11:22.935Z,12.07
2022-08-16T04:14:00.533Z,12.55
2022-08-16T04:16:41.443Z,17.30
2022-08-16T04:19:26.785Z,13.20
2022-08-16T04:22:00.795Z,13.57
2022-08-16T04:24:31.554Z,13.63
2022-08-16T04:26:59.309Z,15.00
2022-08-16T04:29:27.870Z,12.70
2022-08-16T04:32:11.202Z,14.48
2022-08-16T04:34:42.724Z,14.65
2022-08-16T04:37:11.953Z,13.30
2022-08-16T04:39:46.778Z,12.85
2022-08-16T04:42:17.534Z,13.80
2022-08-16T04:44:54.170Z,14.75
2022-08-16T04:47:31.361Z,14.07
2022-08-16T04:50:07.853Z,12.15
2022-08-16T04:52:36.095Z,15.20
2022-08-16T04:55:11.846Z,12.02
2022-08-16T04:57:41.340Z,13.52
2022-08-16T05:00:30.399Z,17.65
2022-08-16T05:03:13.674Z,14.27
2022-08-16T05:05:58.984Z,14.25
2022-08-16T05:08:32.932Z,14.27
2022-08-16T05:11:18.019Z,13.25
2022-08-16T05:13:47.574Z,15.27
2022-08-16T05:16:27.525Z,16.77
2022-08-16T05:19:11.660Z,13.68
2022-08-16T05:21:47.228Z,19.30
2022-08-16T05:24:14.133Z,15.27
2022-08-16T05:26:51.532Z,16.55
2022-08-16T05:29:20.594Z,13.70
2022-08-16T05:32:32.925Z,17.45
2022-08-16T05:34:55.323Z,13.98
2022-08-16T05:37:24.396Z,16.67
2022-08-16T05:39:55.221Z,13.70
2022-08-16T05:42:22.714Z,17.45
2022-08-16T05:45:06.816Z,14.48
2022-08-16T05:47:34.757Z,17.33
2022-08-16T05:50:10.621Z,16.58
2022-08-16T05:52:46.558Z,16.00
2022-08-16T05:55:13.770Z,16.00
2022-08-16T05:57:41.867Z,16.58
2022-08-16T06:00:11.840Z,15.52
2022-08-16T06:02:44.307Z,15.20
2022-08-16T06:05:36.813Z,16.08
2022-08-16T06:08:08.770Z,15.15
2022-08-16T06:11:05.611Z,16.05
2022-08-16T06:13:37.794Z,14.63
2022-08-16T06:16:18.316Z,14.80
2022-08-16T06:18:47.542Z,19.40
2022-08-16T06:21:23.610Z,17.13
2022-08-16T06:23:56.800Z,21.38
2022-08-16T06:26:34.681Z,17.35
2022-08-16T06:29:04.305Z,19.58
2022-08-16T06:31:46.717Z,18.17
2022-08-16T06:34:55.535Z,18.05
2022-08-16T06:37:04.349Z,17.23
2022-08-16T06:39:46.518Z,17.13
2022-08-16T06:42:30.014Z,19.20
2022-08-16T06:45:31.358Z,16.23
2022-08-16T06:48:07.574Z,18.05
2022-08-16T06:50:37.730Z,15.52
2022-08-16T06:53:09.343Z,15.57
2022-08-16T06:55:47.693Z,15.13
2022-08-16T06:58:31.334Z,18.77
2022-08-16T07:01:09.894Z,16.17
2022-08-16T07:03:55.739Z,16.55
2022-08-16T07:06:28.024Z,16.20
2022-08-16T07:08:59.805Z,17.45
2022-08-16T07:11:46.124Z,16.17
2022-08-16T07:14:26.348Z,16.15
2022-08-16T07:16:59.103Z,16.20
2022-08-16T07:20:03.950Z,19.63
2022-08-16T07:22:37.472Z,13.18
2022-08-16T07:25:09.942Z,15.43
2022-08-16T07:27:38.544Z,13.88
2022-08-16T07:30:44.834Z,15.20
2022-08-16T07:33:02.248Z,12.65
2022-08-16T07:35:29.814Z,14.82
2022-08-16T07:37:56.735Z,16.52
2022-08-16T07:40:59.534Z,11.68
2022-08-16T07:43:22.990Z,13.65
2022-08-16T07:45:53.042Z,13.25
2022-08-16T07:48:21.581Z,11.02
2022-08-16T07:50:56.393Z,14.30
2022-08-16T07:53:29.005Z,15.45
2022-08-16T07:55:57.527Z,15.60
2022-08-16T07:58:34.525Z,14.23
2022-08-16T08:01:10.431Z,13.25
2022-08-16T08:03:48.302Z,15.02
2022-08-16T08:06:19.134Z,11.80
2022-08-16T08:08:50.315Z,14.02
2022-08-16T08:11:21.430Z,10.70
2022-08-16T08:13:50.727Z,10.40
2022-08-16T08:16:19.911Z,10.18
2022-08-16T08:18:50.447Z,10.07
2022-08-16T08:21:27.229Z,8.43
2022-08-16T08:23:57.633Z,9.93
2022-08-16T08:26:25.233Z,7.75
2022-08-16T08:28:52.643Z,9.43
2022-08-16T08:31:21.268Z,6.85
2022-08-16T08:33:51.572Z,5.22
2022-08-16T08:36:33.428Z,4.90
2022-08-16T08:39:13.017Z,7.82
2022-08-16T08:41:43.485Z,8.55
2022-08-16T08:44:29.854Z,8.02
2022-08-16T08:47:05.610Z,4.97
2022-08-16T08:49:50.393Z,8.32
2022-08-16T08:52:35.164Z,6.57
2022-08-16T08:55:11.455Z,5.97
2022-08-16T08:57:44.796Z,6.72
2022-08-16T09:00:50.137Z,5.75
2022-08-16T09:03:18.839Z,4.60
2022-08-16T09:05:51.285Z,6.45
2022-08-16T09:08:19.462Z,6.03
2022-08-16T09:11:02.002Z,5.68
2022-08-16T09:13:33.122Z,4.85
2022-08-16T09:16:00.662Z,5.05
2022-08-16T09:18:35.611Z,3.67
2022-08-16T09:21:07.164Z,4.10
2022-08-16T09:23:37.551Z,3.38
2022-08-16T09:26:44.167Z,7.68
2022-08-16T09:29:14.721Z,3.53
2022-08-16T09:31:42.786Z,5.07
2022-08-16T09:34:10.386Z,3.90
2022-08-16T09:36:46.102Z,5.13
2022-08-16T09:39:16.003Z,4.32
2022-08-16T09:41:53.319Z,4.72
2022-08-16T09:45:11.271Z,4.43
2022-08-16T09:47:11.494Z,8.85
2022-08-16T09:49:40.793Z,5.05
2022-08-16T09:52:09.892Z,5.35
2022-08-16T09:54:38.864Z,4.55
2022-08-16T09:57:12.113Z,4.45
2022-08-16T09:59:41.961Z,8.23
2022-08-16T10:02:25.946Z,4.97
2022-08-16T10:04:57.727Z,4.68
2022-08-16T10:07:26.302Z,3.65
2022-08-16T10:10:11.848Z,6.57
2022-08-16T10:12:57.226Z,3.85
2022-08-16T10:15:25.347Z,5.35
2022-08-16T10:18:00.252Z,3.88
2022-08-16T10:20:33.912Z,5.18
2022-08-16T10:23:06.893Z,7.43
2022-08-16T10:27:17.134Z,4.07
2022-08-16T10:28:29.286Z,4.72
2022-08-16T10:30:59.636Z,3.80
2022-08-16T10:33:29.734Z,4.63
2022-08-16T10:36:03.965Z,6.82
2022-08-16T10:38:32.990Z,4.65
2022-08-16T10:41:00.747Z,3.88
2022-08-16T10:43:31.206Z,4.40
2022-08-16T10:46:00.121Z,3.38
2022-08-16T10:48:29.180Z,3.65
2022-08-16T10:51:00.371Z,4.63
2022-08-16T10:53:33.968Z,3.13
2022-08-16T10:56:03.305Z,3.22
2022-08-16T10:58:34.494Z,4.57
2022-08-16T11:03:51.863Z,3.15
2022-08-16T11:06:26.764Z,2.63
2022-08-16T11:14:33.478Z,4.53
2022-08-16T11:17:09.537Z,2.45
2022-08-16T11:22:42.202Z,4.53
2022-08-16T11:26:07.501Z,3.63
2022-08-16T11:28:06.525Z,3.60
2022-08-16T11:30:39.049Z,5.55
2022-08-16T11:33:07.819Z,3.50
2022-08-16T11:38:51.149Z,3.95
2022-08-16T11:41:11.195Z,4.10
2022-08-16T11:43:41.655Z,4.57
2022-08-16T11:46:44.794Z,3.33
2022-08-16T11:49:02.057Z,7.28
2022-08-16T11:51:29.051Z,3.47
2022-08-16T11:53:56.288Z,3.88
2022-08-16T11:56:39.479Z,3.63
2022-08-16T11:59:10.529Z,3.92
2022-08-16T12:01:55.283Z,3.70
2022-08-16T12:04:26.488Z,4.70
2022-08-16T12:06:54.656Z,2.95
2022-08-16T12:09:22.140Z,3.22
2022-08-16T12:11:52.451Z,3.00
2022-08-16T12:14:22.814Z,5.85
2022-08-16T12:16:55.098Z,3.22
2022-08-16T12:19:33.700Z,4.95
2022-08-16T12:22:05.789Z,3.78
2022-08-16T12:24:45.800Z,3.33
2022-08-16T12:27:18.264Z,2.38
2022-08-16T12:29:45.018Z,3.08
2022-08-16T12:32:35.993Z,3.63
2022-08-16T12:34:58.740Z,6.53
2022-08-16T12:37:26.110Z,3.40
2022-08-16T12:39:56.710Z,3.85
2022-08-16T12:42:35.267Z,2.60
2022-08-16T12:45:04.681Z,3.92
2022-08-16T12:47:50.297Z,3.33
2022-08-16T12:50:18.555Z,6.00
2022-08-16T12:52:52.335Z,4.13
2022-08-16T12:55:22.048Z,3.47
2022-08-16T12:57:58.474Z,6.57
2022-08-16T13:00:33.291Z,4.22
2022-08-16T13:03:03.201Z,3.53
2022-08-16T13:05:42.913Z,3.45
2022-08-16T13:08:20.818Z,3.75
2022-08-16T13:10:50.573Z,4.63
2022-08-16T13:13:26.268Z,4.85
2022-08-16T13:16:03.690Z,4.70
2022-08-16T13:18:33.602Z,3.70
2022-08-16T13:21:01.685Z,7.22
2022-08-16T13:23:29.912Z,5.13
2022-08-16T13:25:57.480Z,3.28
2022-08-16T13:28:24.606Z,4.80
2022-08-16T13:30:54.579Z,3.90
2022-08-16T13:33:36.862Z,3.22
2022-08-16T13:36:08.391Z,2.75
2022-08-16T13:38:49.266Z,5.65
2022-08-16T13:41:16.345Z,4.13
2022-08-16T13:43:43.270Z,4.13
2022-08-16T13:46:10.539Z,2.00
2022-08-16T13:48:44.753Z,2.33
2022-08-16T13:51:16.791Z,4.10
2022-08-16T13:53:54.442Z,2.97
2022-08-16T13:56:36.022Z,3.22
2022-08-16T13:59:19.341Z,12.07
2022-08-16T14:01:55.793Z,4.30
2022-08-16T14:04:31.206Z,3.80
2022-08-16T14:06:59.572Z,3.65
2022-08-16T14:09:28.274Z,5.93
2022-08-16T14:12:00.670Z,3.45
2022-08-16T14:14:30.086Z,3.97
2022-08-16T14:16:59.780Z,3.47
2022-08-16T14:19:29.434Z,5.47
2022-08-16T14:22:14.118Z,3.17
2022-08-16T14:24:45.150Z,5.40
2022-08-16T14:27:15.766Z,3.88
2022-08-16T14:29:44.557Z,4.32
2022-08-16T14:32:22.018Z,6.90
2022-08-16T14:35:00.938Z,4.63
2022-08-16T14:37:27.970Z,5.35
2022-08-16T14:39:58.073Z,3.00
2022-08-16T14:42:25.766Z,2.75
2022-08-16T14:44:53.317Z,5.22
2022-08-16T14:47:22.341Z,7.00
2022-08-16T14:49:52.286Z,5.85
2022-08-16T14:52:44.360Z,2.78
2022-08-16T14:55:11.740Z,3.05
2022-08-16T14:57:39.956Z,3.55
2022-08-16T15:00:11.151Z,3.63
2022-08-16T15:02:45.871Z,2.88
2022-08-16T15:05:12.906Z,3.67
2022-08-16T15:07:41.425Z,6.00
2022-08-16T15:10:12.048Z,4.60
2022-08-16T15:12:55.544Z,3.38
2022-08-16T15:15:25.283Z,7.85
2022-08-16T15:17:54.261Z,3.72
2022-08-16T15:20:29.582Z,3.10
2022-08-16T15:22:58.928Z,3.50
2022-08-16T15:25:33.346Z,6.90
2022-08-16T15:28:05.784Z,2.50
2022-08-16T15:30:56.869Z,2.95
2022-08-16T15:33:25.529Z,5.07
2022-08-16T15:35:55.320Z,3.92
2022-08-16T15:38:57.584Z,7.30
2022-08-16T15:41:09.521Z,3.65
2022-08-16T15:43:40.540Z,2.65
2022-08-16T15:46:54.658Z,7.07
2022-08-16T15:49:12.807Z,3.47
2022-08-16T15:51:44.854Z,3.58
2022-08-16T15:54:29.179Z,3.20
2022-08-16T15:57:11.686Z,2.88
2022-08-16T15:59:49.125Z,2.80
2022-08-16T16:02:29.625Z,3.95
2022-08-16T16:05:00.455Z,3.40
2022-08-16T16:07:30.032Z,4.95
2022-08-16T16:09:59.231Z,4.10
2022-08-16T16:12:50.968Z,3.50
2022-08-16T16:15:20.299Z,3.35
2022-08-16T16:17:52.307Z,3.17
2022-08-16T16:20:21.910Z,5.65
2022-08-16T16:22:51.884Z,5.35
2022-08-16T16:25:20.383Z,2.60
2022-08-16T16:27:55.913Z,4.07
2022-08-16T16:30:42.945Z,4.28
2022-08-16T16:33:21.213Z,3.30
2022-08-16T16:35:59.393Z,2.85
2022-08-16T16:38:31.154Z,2.97
2022-08-16T16:41:04.759Z,3.15
2022-08-16T16:43:40.528Z,3.13
2022-08-16T16:46:40.753Z,3.67
2022-08-16T16:48:56.614Z,4.75
2022-08-16T16:51:24.557Z,5.00
2022-08-16T16:53:56.854Z,7.63
2022-08-16T16:56:31.425Z,4.95
2022-08-16T16:59:07.091Z,2.45
2022-08-16T17:01:59.761Z,3.20
2022-08-16T17:04:36.755Z,5.25
2022-08-16T17:07:10.863Z,3.17
2022-08-16T17:09:40.628Z,4.47
2022-08-16T17:12:09.281Z,2.60
2022-08-16T17:14:38.315Z,3.35
2022-08-16T17:19:54.431Z,3.60
2022-08-16T17:22:22.796Z,4.18
2022-08-16T17:24:52.439Z,2.72
2022-08-16T17:27:32.554Z,4.65
2022-08-16T17:30:15.923Z,3.30
2022-08-16T17:32:50.753Z,5.82
2022-08-16T17:35:34.305Z,4.30
2022-08-16T17:38:06.818Z,3.78
2022-08-16T17:39:26.422Z,2.70
2022-08-16T17:40:47.978Z,3.33
2022-08-16T17:43:31.855Z,4.15
2022-08-16T17:45:59.737Z,3.85
2022-08-16T17:48:28.055Z,2.90
2022-08-16T17:50:55.062Z,3.53
2022-08-16T17:53:22.638Z,4.72
2022-08-16T17:55:50.512Z,5.32
2022-08-16T17:58:22.886Z,4.20
2022-08-16T18:00:52.760Z,2.88
2022-08-16T18:04:02.896Z,4.18
2022-08-16T18:06:25.138Z,4.43
2022-08-16T18:09:00.353Z,3.90
2022-08-16T18:11:30.089Z,4.20
2022-08-16T18:13:59.687Z,4.05
2022-08-16T18:16:26.845Z,3.08
2022-08-16T18:18:53.790Z,5.47
2022-08-16T18:21:40.113Z,5.38
2022-08-16T18:24:07.838Z,4.22
2022-08-16T18:26:34.941Z,3.92
2022-08-16T18:29:01.806Z,3.90
2022-08-16T18:31:28.646Z,4.15
2022-08-16T18:33:56.099Z,5.03
2022-08-16T18:36:24.096Z,3.45
2022-08-16T18:38:52.370Z,8.30
2022-08-16T18:41:20.811Z,3.70
2022-08-16T18:43:58.839Z,3.90
2022-08-16T18:46:34.782Z,4.18
2022-08-16T18:49:01.669Z,4.93
2022-08-16T18:51:28.496Z,4.10
2022-08-16T18:53:55.260Z,6.15
2022-08-16T18:56:22.068Z,3.95
2022-08-16T18:58:49.206Z,4.65
2022-08-16T19:01:16.085Z,4.13
2022-08-16T19:03:43.128Z,3.58
2022-08-16T19:06:13.687Z,3.28
2022-08-16T19:08:43.500Z,4.28
2022-08-16T19:11:13.925Z,4.72
2022-08-16T19:13:44.029Z,3.83
2022-08-16T19:16:13.073Z,4.03
2022-08-16T19:18:40.648Z,3.85
2022-08-16T19:21:09.801Z,4.40
2022-08-16T19:23:38.111Z,4.75
2022-08-16T19:26:11.049Z,3.53
2022-08-16T19:31:33.311Z,3.65
2022-08-16T19:34:01.083Z,3.33
2022-08-16T19:36:35.829Z,6.75
2022-08-16T19:39:09.962Z,3.85
2022-08-16T19:41:43.057Z,7.00
2022-08-16T19:44:10.318Z,5.82
2022-08-16T19:46:41.585Z,5.15
2022-08-16T19:49:08.508Z,6.32
2022-08-16T19:51:35.385Z,4.40
2022-08-16T19:54:04.520Z,4.32
2022-08-16T19:56:31.289Z,6.78
2022-08-16T20:01:46.182Z,6.80
2022-08-16T20:04:13.404Z,5.15
2022-08-16T20:06:41.564Z,4.40
2022-08-16T20:09:10.508Z,7.10
2022-08-16T20:11:42.321Z,5.15
2022-08-16T20:14:09.272Z,5.55
2022-08-16T20:16:36.183Z,5.40
2022-08-16T20:19:04.443Z,4.10
2022-08-16T20:21:31.390Z,6.25
2022-08-16T20:24:22.599Z,7.47
2022-08-16T20:26:45.329Z,6.00
2022-08-16T20:29:12.158Z,6.35
2022-08-16T20:31:39.246Z,9.75
2022-08-16T20:34:06.114Z,5.55
2022-08-16T20:36:33.026Z,8.52
2022-08-16T20:39:02.786Z,5.55
2022-08-16T20:41:30.177Z,8.73
2022-08-16T20:43:57.280Z,5.85
2022-08-16T20:46:24.308Z,5.22
2022-08-16T20:48:51.113Z,8.60
2022-08-16T20:51:17.977Z,5.88
2022-08-16T20:53:44.813Z,5.55
2022-08-16T20:56:11.987Z,6.65
2022-08-16T20:58:39.377Z,5.82
2022-08-16T21:01:07.533Z,7.70
2022-08-16T21:03:35.111Z,4.75
2022-08-16T21:06:02.248Z,5.55
2022-08-16T21:08:53.234Z,5.38
2022-08-16T21:11:16.603Z,10.43
2022-08-16T21:13:43.370Z,5.97
2022-08-16T21:16:10.668Z,7.88
2022-08-16T21:18:39.831Z,5.45
2022-08-16T21:21:09.385Z,4.57
2022-08-16T21:23:37.670Z,7.22
2022-08-16T21:26:08.357Z,6.18
2022-08-16T21:28:43.582Z,7.20
2022-08-16T21:31:16.732Z,11.10
2022-08-16T21:33:54.157Z,8.40
2022-08-16T21:36:35.840Z,5.75
2022-08-16T21:39:05.750Z,6.45
2022-08-16T21:41:33.202Z,7.25
2022-08-16T21:44:00.041Z,7.28
2022-08-16T21:46:26.844Z,7.15
2022-08-16T21:48:53.607Z,5.63
2022-08-16T21:51:20.759Z,6.20
2022-08-16T21:53:47.682Z,5.75
2022-08-16T21:56:17.091Z,6.15
2022-08-16T21:58:45.464Z,7.38
2022-08-16T22:01:12.373Z,4.75
2022-08-16T22:03:39.248Z,5.85
2022-08-16T22:06:13.167Z,6.07
2022-08-16T22:08:50.332Z,6.15
2022-08-16T22:11:19.662Z,5.65
2022-08-16T22:13:57.243Z,6.57
2022-08-16T22:16:29.230Z,7.38
2022-08-16T22:18:56.118Z,5.15
2022-08-16T22:21:23.041Z,8.20
2022-08-16T22:23:55.152Z,6.20
2022-08-16T22:26:30.674Z,6.63
2022-08-16T22:29:00.104Z,5.85
2022-08-16T22:31:27.427Z,5.20
2022-08-16T22:33:55.925Z,5.40
2022-08-16T22:36:22.730Z,4.75
2022-08-16T22:38:56.210Z,7.05
2022-08-16T22:41:26.031Z,6.53
2022-08-16T22:43:52.845Z,7.65
2022-08-16T22:46:19.875Z,5.05
2022-08-16T22:48:49.968Z,4.97
2022-08-16T22:51:18.379Z,5.53
2022-08-16T22:53:45.150Z,5.80
2022-08-16T22:56:12.063Z,6.20
2022-08-16T22:58:39.237Z,5.97
2022-08-16T23:01:08.082Z,6.00
2022-08-16T23:03:35.870Z,6.05
2022-08-16T23:06:04.192Z,7.45
2022-08-16T23:08:38.234Z,7.70
2022-08-16T23:11:09.181Z,9.10
2022-08-16T23:13:36.112Z,6.40
2022-08-16T23:16:11.019Z,6.85
2022-08-16T23:18:39.834Z,5.78
2022-08-16T23:21:09.865Z,6.60
2022-08-16T23:23:37.946Z,5.35
2022-08-16T23:26:36.378Z,6.55
2022-08-16T23:28:52.191Z,6.78
2022-08-16T23:31:19.367Z,6.18
2022-08-16T23:33:46.704Z,7.28
2022-08-16T23:36:13.693Z,7.65
2022-08-16T23:38:41.249Z,6.30
2022-08-16T23:41:11.274Z,5.72
2022-08-16T23:43:43.088Z,6.35
2022-08-16T23:46:15.176Z,5.53
2022-08-16T23:49:56.134Z,8.38
2022-08-16T23:51:30.520Z,7.95
2022-08-16T23:53:57.344Z,5.85
2022-08-16T23:56:25.636Z,8.35
2022-08-16T23:59:02.124Z,6.13
